Weedon Field

About
Name: Weedon Field
Identifier:  EUF/KEUF
Serves:  Eufaula, Alabama
Owner:  City of Eufaula
Public/Private:  Public
Local Time:  18. Aug 12:26 CDT
Description: Weedon Field is a city-owned, public-use airport located three nautical miles north of the central business district of Eufaula, a city in Barbour County, Alabama, United States.
Source: Wikipedia
Location
Runways
Identifier Length (m/ft) Surface
18/36 5,000/5,000 Asphalt
Flights per Day
0 flights
Distance: 102km (63mi)
Punctuality
0% (0 flights per day delayed)
Delay Average: 10 minutes
Current Weather
 20 C (Humidity: 82%)
  0kt (0km/h / 0mph) from 0°
  Broken clouds at 2,400 feet (731 meter)
  Overcast at 3,100 feet (944 meter)
  16km (10 mi.)
 METAR KEUF 282358Z AUTO 00000KT 10SM BKN024 OVC031 20/17 A3000 RMK AO2 SLP157 T02000167 10233 20200 53005

Current Flights

Departures
Number Departure To Airline
Arrivals
Number Arrival From Airline

Current Delays

Departures
N/A
Arrivals
N/A

Destinations

Top Destinations
Airport Flights
per week
Seats
per week
  Canton (QQC) 0 - 0 0
  Brunswick (BQK) 0 - 0 0
  Mobile (BFM) 0 - 0 0
  Enterprise (ETS) 0 - 0 0
  Mountain Home (WMH) 0 - 0 0

Airlines & Planes

Top Airlines
Airline Flights
per Day
Seats
per Day
  Flybe Nordic 0 -
  National Airlines 0 -
  Novair 0 -
Top Plane Types
Model Flights Seats
Cessna C182 0.1/day - 0
Piper PA28-181 0.0/day - 0
Piper PA-46-350P Malibu Mirage 0.0/day - 0